createdAt,value
2019-05-19T00:02:23.889Z,63.10
2019-05-19T00:07:15.322Z,63.60
2019-05-19T00:12:06.647Z,62.20
2019-05-19T00:17:00.314Z,64.70
2019-05-19T00:21:51.728Z,64.70
2019-05-19T00:26:43.130Z,65.30
2019-05-19T00:31:34.461Z,67.10
2019-05-19T00:36:25.920Z,69.80
2019-05-19T00:41:17.328Z,70.90
2019-05-19T00:46:08.651Z,70.20
2019-05-19T00:51:00.033Z,72.00
2019-05-19T00:55:51.500Z,73.20
2019-05-19T01:00:42.909Z,73.20
2019-05-19T01:05:34.286Z,71.20
2019-05-19T01:10:25.631Z,69.80
2019-05-19T01:15:17.064Z,68.00
2019-05-19T01:20:08.402Z,69.90
2019-05-19T01:24:59.808Z,68.30
2019-05-19T01:29:55.829Z,67.50
2019-05-19T01:34:47.301Z,66.70
2019-05-19T01:39:38.668Z,68.00
2019-05-19T01:44:30.021Z,69.90
2019-05-19T01:49:25.978Z,68.00
2019-05-19T01:54:17.366Z,68.70
2019-05-19T01:59:13.302Z,67.10
2019-05-19T02:04:04.694Z,69.20
2019-05-19T02:08:58.363Z,73.30
2019-05-19T02:13:49.782Z,71.40
2019-05-19T02:18:41.176Z,69.30
2019-05-19T02:23:32.469Z,71.50
2019-05-19T02:28:24.007Z,72.50
2019-05-19T02:33:17.562Z,70.80
2019-05-19T02:38:11.271Z,69.60
2019-05-19T02:43:02.661Z,69.70
2019-05-19T02:47:54.137Z,73.40
2019-05-19T02:52:45.425Z,71.80
2019-05-19T02:57:36.860Z,71.00
2019-05-19T03:02:28.223Z,70.60
2019-05-19T03:07:19.672Z,70.70
2019-05-19T03:12:11.035Z,70.40
2019-05-19T03:17:02.524Z,70.00
2019-05-19T03:21:53.837Z,72.90
2019-05-19T03:26:45.277Z,72.70
2019-05-19T03:31:36.638Z,72.80
2019-05-19T03:36:28.051Z,73.60
2019-05-19T03:41:19.385Z,73.60
2019-05-19T03:46:10.807Z,73.60
2019-05-19T03:51:04.469Z,70.80
2019-05-19T03:55:55.889Z,72.50
2019-05-19T04:00:47.227Z,72.20
2019-05-19T04:05:38.674Z,73.30
2019-05-19T04:10:30.004Z,72.70
2019-05-19T04:15:21.449Z,71.30
2019-05-19T04:20:12.808Z,69.10
2019-05-19T04:25:04.201Z,66.40
2019-05-19T04:29:55.632Z,67.90
2019-05-19T04:34:47.150Z,66.80
2019-05-19T04:39:38.695Z,67.20
2019-05-19T04:44:30.119Z,63.80
2019-05-19T04:49:21.498Z,61.40
2019-05-19T04:54:12.898Z,65.30
2019-05-19T04:59:04.264Z,65.00
2019-05-19T05:03:55.619Z,65.70
2019-05-19T05:08:47.019Z,64.50
2019-05-19T05:13:38.400Z,62.70
2019-05-19T05:18:29.905Z,61.50
2019-05-19T05:23:21.151Z,58.30
2019-05-19T05:28:12.576Z,58.80
2019-05-19T05:33:03.960Z,56.20
2019-05-19T05:37:55.413Z,54.50
2019-05-19T05:42:46.708Z,55.30
2019-05-19T05:47:38.179Z,53.70
2019-05-19T05:52:39.435Z,53.50
2019-05-19T05:57:20.957Z,52.50
2019-05-19T06:02:12.321Z,50.30
2019-05-19T06:07:05.931Z,49.60
2019-05-19T06:11:57.367Z,49.40
2019-05-19T06:16:48.768Z,46.20
2019-05-19T06:21:40.169Z,43.80
2019-05-19T06:26:31.500Z,41.80
2019-05-19T06:31:22.942Z,39.70
2019-05-19T06:36:14.363Z,40.40
2019-05-19T06:41:05.692Z,37.10
2019-05-19T06:45:59.334Z,30.40
2019-05-19T06:50:50.738Z,32.00
2019-05-19T06:55:42.248Z,32.40
2019-05-19T07:00:33.523Z,33.20
2019-05-19T07:05:27.214Z,30.50
2019-05-19T07:10:18.595Z,31.10
2019-05-19T07:15:10.035Z,26.00
2019-05-19T07:20:01.406Z,27.60
2019-05-19T07:24:52.842Z,27.00
2019-05-19T07:29:44.213Z,26.70
2019-05-19T07:34:35.798Z,29.30
2019-05-19T07:39:27.036Z,27.50
2019-05-19T07:44:18.353Z,27.00
2019-05-19T07:49:09.800Z,27.00
2019-05-19T07:54:01.202Z,25.80
2019-05-19T07:58:52.550Z,23.70
2019-05-19T08:03:43.907Z,23.40
2019-05-19T08:08:35.369Z,20.60
2019-05-19T08:13:26.755Z,18.70
2019-05-19T08:18:18.103Z,19.70
2019-05-19T08:23:09.466Z,18.70
2019-05-19T08:28:09.507Z,19.10
2019-05-19T08:32:52.336Z,17.70
2019-05-19T08:37:43.745Z,17.60
2019-05-19T08:42:35.102Z,18.30
2019-05-19T08:47:26.509Z,18.90
2019-05-19T08:52:17.932Z,17.70
2019-05-19T08:57:11.558Z,16.80
2019-05-19T09:02:02.931Z,16.70
2019-05-19T09:06:54.378Z,16.30
2019-05-19T09:11:48.435Z,17.60
2019-05-19T09:16:37.117Z,15.00
2019-05-19T09:21:28.757Z,17.30
2019-05-19T09:26:19.964Z,16.50
2019-05-19T09:31:11.307Z,17.30
2019-05-19T09:36:04.974Z,16.20
2019-05-19T09:40:56.318Z,15.60
2019-05-19T09:45:47.771Z,17.30
2019-05-19T09:50:39.129Z,16.40
2019-05-19T09:55:30.563Z,19.10
2019-05-19T10:00:21.865Z,18.40
2019-05-19T10:05:13.314Z,18.60
2019-05-19T10:10:04.685Z,18.50
2019-05-19T10:14:56.094Z,17.10
2019-05-19T10:19:47.450Z,16.90
2019-05-19T10:29:34.834Z,16.90
2019-05-19T10:34:26.204Z,16.90
2019-05-19T10:39:17.558Z,15.60
2019-05-19T10:44:09.037Z,15.70
2019-05-19T10:49:00.394Z,16.00
2019-05-19T10:53:51.769Z,12.50
2019-05-19T10:58:45.424Z,13.20
2019-05-19T11:03:36.879Z,12.80
2019-05-19T11:08:28.265Z,13.60
2019-05-19T11:13:19.657Z,13.60
2019-05-19T11:18:11.032Z,13.60
2019-05-19T11:23:02.442Z,13.00
2019-05-19T11:27:53.858Z,13.50
2019-05-19T11:32:45.297Z,13.20
2019-05-19T11:37:36.622Z,14.30
2019-05-19T11:42:28.211Z,14.70
2019-05-19T11:47:19.422Z,12.80
2019-05-19T11:52:10.799Z,14.30
2019-05-19T11:57:02.221Z,14.30
2019-05-19T12:01:53.558Z,14.10
2019-05-19T12:06:44.971Z,15.30
2019-05-19T12:11:36.316Z,15.10
2019-05-19T12:16:27.775Z,15.40
2019-05-19T12:21:19.162Z,14.90
2019-05-19T12:26:24.059Z,15.10
2019-05-19T12:31:01.998Z,14.10
2019-05-19T12:35:53.858Z,12.20
2019-05-19T12:40:45.223Z,13.10
2019-05-19T12:50:27.973Z,13.00
2019-05-19T12:55:19.414Z,12.40
2019-05-19T13:00:10.793Z,13.30
2019-05-19T13:05:06.719Z,13.90
2019-05-19T13:09:53.597Z,14.10
2019-05-19T13:14:44.996Z,14.00
2019-05-19T13:19:36.419Z,14.50
2019-05-19T13:24:27.847Z,13.50
2019-05-19T13:29:19.141Z,14.50
2019-05-19T13:34:10.605Z,14.30
2019-05-19T13:39:01.951Z,13.80
2019-05-19T13:43:53.347Z,14.30
2019-05-19T13:48:44.749Z,14.80
2019-05-19T13:53:36.124Z,15.00
2019-05-19T13:58:27.618Z,14.80
2019-05-19T14:03:18.894Z,15.00
2019-05-19T14:08:10.328Z,14.40
2019-05-19T14:13:02.336Z,14.30
2019-05-19T14:17:53.791Z,14.90
2019-05-19T14:22:45.093Z,14.60
2019-05-19T14:27:36.559Z,15.40
2019-05-19T14:32:27.943Z,13.60
2019-05-19T14:37:21.535Z,13.40
2019-05-19T14:42:12.946Z,13.10
2019-05-19T14:47:04.373Z,14.80
2019-05-19T14:52:26.313Z,15.60
2019-05-19T14:57:17.678Z,14.80
2019-05-19T15:02:09.053Z,15.20
2019-05-19T15:07:00.468Z,15.60
2019-05-19T15:11:51.903Z,16.10
2019-05-19T15:16:43.246Z,15.50
2019-05-19T15:21:34.675Z,15.70
2019-05-19T15:26:26.033Z,15.00
2019-05-19T15:31:17.469Z,15.50
2019-05-19T15:36:08.818Z,15.80
2019-05-19T15:41:00.171Z,16.10
2019-05-19T15:45:51.879Z,16.20
2019-05-19T15:50:45.396Z,15.30
2019-05-19T15:55:36.815Z,14.70
2019-05-19T16:00:28.116Z,14.40
2019-05-19T16:05:21.814Z,13.70
2019-05-19T16:10:13.219Z,13.80
2019-05-19T16:15:04.609Z,14.00
2019-05-19T16:19:55.940Z,13.60
2019-05-19T16:24:49.673Z,12.30
2019-05-19T16:29:41.042Z,12.70
2019-05-19T16:34:32.490Z,12.10
2019-05-19T16:39:23.863Z,13.30
2019-05-19T16:44:15.219Z,14.00
2019-05-19T16:49:08.898Z,13.20
2019-05-19T16:54:00.255Z,13.30
2019-05-19T16:58:51.828Z,13.00
2019-05-19T17:03:43.139Z,13.60
2019-05-19T17:08:34.560Z,15.40
2019-05-19T17:13:25.959Z,17.30
2019-05-19T17:18:17.401Z,17.30
2019-05-19T17:23:08.703Z,19.10
2019-05-19T17:28:00.279Z,19.20
2019-05-19T17:32:51.499Z,18.70
2019-05-19T17:37:42.949Z,19.20
2019-05-19T17:42:37.700Z,19.60
2019-05-19T17:47:25.677Z,19.10
2019-05-19T17:52:17.023Z,19.30
2019-05-19T17:57:08.524Z,22.50
2019-05-19T18:01:59.910Z,25.00
2019-05-19T18:06:51.396Z,25.30
2019-05-19T18:11:42.792Z,24.60
2019-05-19T18:16:34.180Z,24.90
2019-05-19T18:21:25.517Z,26.20
2019-05-19T18:26:16.903Z,28.10
2019-05-19T18:31:08.319Z,28.80
2019-05-19T18:35:59.695Z,29.00
2019-05-19T18:40:50.993Z,28.80
2019-05-19T18:45:42.500Z,29.80
2019-05-19T18:50:36.079Z,29.80
2019-05-19T18:55:27.546Z,32.50
2019-05-19T19:00:18.884Z,31.60
2019-05-19T19:05:10.251Z,32.00
2019-05-19T19:10:01.655Z,31.70
2019-05-19T19:14:53.133Z,32.40
2019-05-19T19:19:44.445Z,31.30
2019-05-19T19:24:39.073Z,31.60
2019-05-19T19:29:27.253Z,31.40
2019-05-19T19:34:18.662Z,31.60
2019-05-19T19:39:10.041Z,32.40
2019-05-19T19:44:01.410Z,31.70
2019-05-19T19:48:52.774Z,31.50
2019-05-19T19:53:44.202Z,31.90
2019-05-19T19:58:35.541Z,31.90
2019-05-19T20:03:27.003Z,31.60
2019-05-19T20:08:18.273Z,32.20
2019-05-19T20:13:09.752Z,32.90
2019-05-19T20:18:01.093Z,32.50
2019-05-19T20:22:52.514Z,32.20
2019-05-19T20:27:43.893Z,32.70
2019-05-19T20:37:28.875Z,33.00
2019-05-19T20:42:20.275Z,33.50
2019-05-19T20:47:13.926Z,33.20
2019-05-19T20:52:07.568Z,33.10
2019-05-19T20:56:59.256Z,33.10
2019-05-19T21:01:52.626Z,33.20
2019-05-19T21:06:44.135Z,33.50
2019-05-19T21:11:35.371Z,32.60
2019-05-19T21:16:26.844Z,31.90
2019-05-19T21:21:18.150Z,32.10
2019-05-19T21:26:09.622Z,32.90
2019-05-19T21:31:06.687Z,35.20
2019-05-19T21:40:48.262Z,39.40
2019-05-19T21:45:39.737Z,37.90
2019-05-19T21:50:33.341Z,34.40
2019-05-19T21:55:24.717Z,35.30
2019-05-19T22:00:18.298Z,34.90
2019-05-19T22:05:09.784Z,35.50
2019-05-19T22:10:01.121Z,37.30
2019-05-19T22:14:52.510Z,38.10
2019-05-19T22:19:46.193Z,41.90
2019-05-19T22:24:37.664Z,44.30
2019-05-19T22:29:31.234Z,45.70
2019-05-19T22:34:22.689Z,48.70
2019-05-19T22:39:14.037Z,47.30
2019-05-19T22:44:07.668Z,59.00
2019-05-19T22:48:59.092Z,57.30
2019-05-19T22:53:50.453Z,55.70
2019-05-19T22:58:42.085Z,56.50
2019-05-19T23:03:33.231Z,57.50
2019-05-19T23:08:24.593Z,60.70
2019-05-19T23:13:16.016Z,60.40
2019-05-19T23:18:07.382Z,63.70
2019-05-19T23:22:58.765Z,66.80
2019-05-19T23:27:50.117Z,67.70
2019-05-19T23:32:41.525Z,71.40
2019-05-19T23:37:32.942Z,73.20
2019-05-19T23:42:24.276Z,75.70
2019-05-19T23:47:15.759Z,75.20
2019-05-19T23:52:07.108Z,76.10
2019-05-19T23:56:58.543Z,75.70
